createdAt,value
2018-11-01T00:01:38.111Z,7.96
2018-11-01T00:04:09.513Z,7.91
2018-11-01T00:06:40.659Z,7.88
2018-11-01T00:09:12.210Z,7.89
2018-11-01T00:11:44.020Z,7.82
2018-11-01T00:14:15.513Z,7.81
2018-11-01T00:16:47.070Z,7.88
2018-11-01T00:19:18.108Z,7.88
2018-11-01T00:21:49.987Z,7.98
2018-11-01T00:24:22.293Z,7.93
2018-11-01T00:26:53.432Z,7.99
2018-11-01T00:29:24.906Z,7.95
2018-11-01T00:31:56.819Z,8.04
2018-11-01T00:34:29.513Z,7.99
2018-11-01T00:37:00.989Z,7.95
2018-11-01T00:39:32.432Z,7.90
2018-11-01T00:42:04.035Z,7.86
2018-11-01T00:44:35.129Z,7.90
2018-11-01T00:47:06.374Z,7.88
2018-11-01T00:49:37.366Z,7.97
2018-11-01T00:52:08.560Z,7.98
2018-11-01T00:54:40.006Z,7.95
2018-11-01T00:57:11.098Z,7.87
2018-11-01T00:59:42.578Z,7.83
2018-11-01T01:02:13.622Z,7.79
2018-11-01T01:04:45.079Z,7.78
2018-11-01T01:07:16.481Z,7.82
2018-11-01T01:09:48.917Z,7.87
2018-11-01T01:12:20.019Z,7.94
2018-11-01T01:14:51.444Z,7.90
2018-11-01T01:17:23.058Z,7.90
2018-11-01T01:19:54.408Z,7.93
2018-11-01T01:22:26.221Z,7.94
2018-11-01T01:24:58.452Z,7.89
2018-11-01T01:27:29.990Z,7.85
2018-11-01T01:30:01.028Z,7.88
2018-11-01T01:32:33.258Z,7.94
2018-11-01T01:35:05.757Z,7.93
2018-11-01T01:37:37.282Z,7.90
2018-11-01T01:40:09.460Z,7.88
2018-11-01T01:42:55.973Z,7.88
2018-11-01T01:45:27.657Z,7.90
2018-11-01T01:47:59.975Z,8.01
2018-11-01T01:50:31.032Z,8.00
2018-11-01T01:53:02.019Z,8.02
2018-11-01T01:55:33.066Z,8.05
2018-11-01T01:58:08.400Z,7.99
2018-11-01T02:00:39.590Z,8.02
2018-11-01T02:03:11.498Z,8.06
2018-11-01T02:05:42.891Z,8.13
2018-11-01T02:08:14.392Z,8.19
2018-11-01T02:10:47.274Z,8.16
2018-11-01T02:13:19.626Z,8.16
2018-11-01T02:15:51.974Z,8.12
2018-11-01T02:18:23.325Z,8.10
2018-11-01T02:20:54.340Z,8.08
2018-11-01T02:23:25.498Z,8.06
2018-11-01T02:25:58.672Z,7.98
2018-11-01T02:28:30.573Z,7.99
2018-11-01T02:31:01.971Z,8.13
2018-11-01T02:33:33.352Z,8.23
2018-11-01T02:36:05.363Z,8.23
2018-11-01T02:38:36.585Z,8.15
2018-11-01T02:41:07.899Z,8.18
2018-11-01T02:43:39.225Z,8.21
2018-11-01T02:46:11.286Z,8.24
2018-11-01T02:48:44.179Z,8.24
2018-11-01T02:51:15.170Z,8.11
2018-11-01T02:53:46.623Z,8.14
2018-11-01T02:56:18.954Z,8.18
2018-11-01T02:58:52.016Z,8.08
2018-11-01T03:01:23.877Z,8.13
2018-11-01T03:03:55.568Z,8.09
2018-11-01T03:06:27.013Z,8.03
2018-11-01T03:08:59.149Z,7.99
2018-11-01T03:11:31.865Z,7.95
2018-11-01T03:14:03.281Z,7.91
2018-11-01T03:16:35.356Z,7.90
2018-11-01T03:19:07.566Z,7.86
2018-11-01T03:21:38.727Z,7.90
2018-11-01T03:24:10.445Z,7.88
2018-11-01T03:26:44.164Z,7.94
2018-11-01T03:29:15.646Z,7.85
2018-11-01T03:31:47.023Z,7.70
2018-11-01T03:34:19.122Z,7.67
2018-11-01T03:36:50.545Z,7.64
2018-11-01T03:39:21.630Z,7.59
2018-11-01T03:41:53.991Z,7.64
2018-11-01T03:44:26.084Z,7.65
2018-11-01T03:46:57.100Z,7.63
2018-11-01T03:49:29.166Z,7.59
2018-11-01T03:52:01.653Z,7.55
2018-11-01T03:54:33.012Z,7.48
2018-11-01T03:57:05.080Z,7.40
2018-11-01T03:59:37.330Z,7.40
2018-11-01T04:02:08.820Z,7.39
2018-11-01T04:04:40.773Z,7.39
2018-11-01T04:07:13.059Z,7.31
2018-11-01T04:09:45.464Z,7.32
2018-11-01T04:12:16.505Z,7.37
2018-11-01T04:14:48.902Z,7.33
2018-11-01T04:17:20.410Z,7.27
2018-11-01T04:19:51.945Z,7.28
2018-11-01T04:22:25.652Z,7.16
2018-11-01T04:24:58.517Z,7.09
2018-11-01T04:27:30.678Z,6.95
2018-11-01T04:30:03.416Z,6.70
2018-11-01T04:32:34.460Z,6.63
2018-11-01T04:35:07.145Z,6.54
2018-11-01T04:37:38.505Z,6.52
2018-11-01T04:40:11.010Z,6.49
2018-11-01T04:42:42.476Z,6.40
2018-11-01T04:45:14.923Z,6.36
2018-11-01T04:47:46.499Z,6.36
2018-11-01T04:50:17.293Z,6.10
2018-11-01T04:52:49.405Z,6.33
2018-11-01T04:55:20.748Z,6.44
2018-11-01T04:57:52.995Z,6.48
2018-11-01T05:00:24.440Z,6.48
2018-11-01T05:02:55.494Z,6.45
2018-11-01T05:05:28.267Z,6.42
2018-11-01T05:08:00.283Z,6.38
2018-11-01T05:10:33.788Z,6.37
2018-11-01T05:13:04.898Z,6.32
2018-11-01T05:15:36.262Z,6.19
2018-11-01T05:18:07.621Z,6.18
2018-11-01T05:20:40.095Z,6.20
2018-11-01T05:23:12.309Z,6.15
2018-11-01T05:25:44.930Z,6.17
2018-11-01T05:28:16.923Z,6.07
2018-11-01T05:30:47.938Z,6.08
2018-11-01T05:33:20.309Z,5.99
2018-11-01T05:35:52.243Z,5.80
2018-11-01T05:38:25.017Z,5.89
2018-11-01T05:40:56.074Z,6.01
2018-11-01T05:43:28.507Z,6.03
2018-11-01T05:46:00.518Z,6.03
2018-11-01T05:48:32.445Z,6.00
2018-11-01T05:51:03.543Z,6.03
2018-11-01T05:53:34.601Z,6.06
2018-11-01T05:56:05.747Z,6.00
2018-11-01T05:58:38.007Z,5.94
2018-11-01T06:01:12.517Z,5.83
2018-11-01T06:03:43.761Z,5.81
2018-11-01T06:06:15.159Z,5.73
2018-11-01T06:08:49.173Z,5.67
2018-11-01T06:11:22.258Z,5.64
2018-11-01T06:13:54.333Z,5.57
2018-11-01T06:16:25.596Z,5.59
2018-11-01T06:18:56.649Z,5.54
2018-11-01T06:21:28.976Z,5.54
2018-11-01T06:24:01.250Z,5.63
2018-11-01T06:26:33.316Z,5.41
2018-11-01T06:29:06.003Z,5.64
2018-11-01T06:31:38.140Z,5.61
2018-11-01T06:34:14.235Z,5.63
2018-11-01T06:36:51.968Z,5.64
2018-11-01T06:39:23.013Z,5.59
2018-11-01T06:41:54.899Z,5.49
2018-11-01T06:44:26.794Z,5.44
2018-11-01T06:46:57.741Z,5.41
2018-11-01T06:49:29.652Z,5.44
2018-11-01T06:52:01.427Z,5.56
2018-11-01T06:54:33.328Z,5.52
2018-11-01T06:57:04.375Z,5.44
2018-11-01T06:59:36.791Z,5.50
2018-11-01T07:02:07.666Z,5.56
2018-11-01T07:04:38.764Z,5.61
2018-11-01T07:07:10.685Z,5.68
2018-11-01T07:09:42.725Z,5.71
2018-11-01T07:12:13.820Z,5.71
2018-11-01T07:14:44.842Z,5.72
2018-11-01T07:17:18.059Z,5.79
2018-11-01T07:19:49.389Z,5.87
2018-11-01T07:22:22.545Z,5.89
2018-11-01T07:24:54.808Z,5.96
2018-11-01T07:27:26.742Z,6.07
2018-11-01T07:29:59.003Z,6.09
2018-11-01T07:32:30.322Z,6.18
2018-11-01T07:35:03.336Z,6.24
2018-11-01T07:37:34.892Z,6.27
2018-11-01T07:40:06.892Z,6.36
2018-11-01T07:42:38.859Z,6.52
2018-11-01T07:45:10.959Z,6.54
2018-11-01T07:47:43.516Z,6.66
2018-11-01T07:50:14.993Z,6.73
2018-11-01T07:52:46.113Z,6.79
2018-11-01T07:55:17.129Z,6.84
2018-11-01T07:57:48.617Z,6.78
2018-11-01T08:00:19.708Z,6.78
2018-11-01T08:02:50.747Z,6.91
2018-11-01T08:05:23.533Z,6.94
2018-11-01T08:07:55.073Z,6.96
2018-11-01T08:10:26.135Z,6.99
2018-11-01T08:12:57.576Z,7.03
2018-11-01T08:15:29.369Z,7.10
2018-11-01T08:18:00.430Z,7.21
2018-11-01T08:20:32.622Z,7.30
2018-11-01T08:23:05.170Z,7.36
2018-11-01T08:25:36.492Z,7.51
2018-11-01T08:28:09.695Z,7.65
2018-11-01T08:30:41.014Z,7.78
2018-11-01T08:33:13.081Z,7.92
2018-11-01T08:35:44.907Z,7.96
2018-11-01T08:38:15.926Z,8.08
2018-11-01T08:40:46.992Z,8.22
2018-11-01T08:43:18.526Z,8.29
2018-11-01T08:45:49.997Z,8.29
2018-11-01T08:48:21.496Z,8.33
2018-11-01T08:50:53.055Z,8.38
2018-11-01T08:53:25.715Z,8.50
2018-11-01T08:55:57.989Z,8.64
2018-11-01T08:58:29.447Z,8.68
2018-11-01T09:01:00.452Z,8.71
2018-11-01T09:03:31.569Z,8.74
2018-11-01T09:06:03.060Z,8.81
2018-11-01T09:08:34.131Z,8.88
2018-11-01T09:11:05.128Z,8.93
2018-11-01T09:13:36.188Z,8.98
2018-11-01T09:16:07.680Z,9.09
2018-11-01T09:18:38.662Z,9.18
2018-11-01T09:21:09.712Z,9.22
2018-11-01T09:23:40.799Z,9.35
2018-11-01T09:26:11.873Z,9.38
2018-11-01T09:28:42.893Z,9.47
2018-11-01T09:31:13.926Z,9.57
2018-11-01T09:33:45.373Z,9.63
2018-11-01T09:36:16.604Z,9.69
2018-11-01T09:38:47.605Z,9.70
2018-11-01T09:41:19.826Z,9.83
2018-11-01T09:43:51.069Z,9.89
2018-11-01T09:46:22.519Z,9.94
2018-11-01T09:48:53.270Z,10.01
2018-11-01T09:51:24.379Z,10.10
2018-11-01T09:53:55.987Z,10.19
2018-11-01T09:56:27.352Z,10.31
2018-11-01T09:58:59.260Z,10.46
2018-11-01T10:01:30.462Z,10.51
2018-11-01T10:04:02.471Z,10.62
2018-11-01T10:06:34.002Z,10.59
2018-11-01T10:09:06.272Z,10.61
2018-11-01T10:11:38.688Z,10.64
2018-11-01T10:14:10.499Z,10.66
2018-11-01T10:16:41.859Z,10.66
2018-11-01T10:19:12.749Z,10.70
2018-11-01T10:21:44.664Z,10.77
2018-11-01T10:24:15.740Z,10.76
2018-11-01T10:26:46.745Z,10.80
2018-11-01T10:29:17.799Z,10.79
2018-11-01T10:31:49.143Z,10.86
2018-11-01T10:34:20.160Z,10.89
2018-11-01T10:36:51.198Z,10.95
2018-11-01T10:39:22.246Z,10.99
2018-11-01T10:41:53.356Z,11.05
2018-11-01T10:44:24.585Z,11.12
2018-11-01T10:46:56.100Z,11.12
2018-11-01T10:49:27.597Z,11.17
2018-11-01T10:51:59.162Z,11.25
2018-11-01T10:54:30.248Z,11.31
2018-11-01T10:57:01.286Z,11.35
2018-11-01T10:59:33.620Z,11.45
2018-11-01T11:02:24.267Z,11.49
2018-11-01T11:04:55.284Z,11.52
2018-11-01T11:07:26.462Z,11.55
2018-11-01T11:09:57.479Z,11.57
2018-11-01T11:12:28.906Z,11.61
2018-11-01T11:15:00.434Z,11.62
2018-11-01T11:17:32.059Z,11.61
2018-11-01T11:20:03.345Z,11.62
2018-11-01T11:22:34.540Z,11.56
2018-11-01T11:25:06.596Z,11.52
2018-11-01T11:27:37.825Z,11.58
2018-11-01T11:30:10.019Z,11.58
2018-11-01T11:32:41.392Z,11.34
2018-11-01T11:35:13.041Z,11.52
2018-11-01T11:37:44.083Z,11.53
2018-11-01T11:40:15.172Z,11.52
2018-11-01T11:42:46.224Z,11.49
2018-11-01T11:45:17.698Z,11.49
2018-11-01T11:47:49.710Z,11.49
2018-11-01T11:50:20.751Z,11.49
2018-11-01T11:52:51.839Z,11.45
2018-11-01T11:55:23.715Z,11.40
2018-11-01T11:57:55.212Z,11.48
2018-11-01T12:00:27.440Z,11.49
2018-11-01T12:02:58.532Z,11.57
2018-11-01T12:05:29.592Z,11.64
2018-11-01T12:08:00.648Z,11.66
2018-11-01T12:10:32.661Z,11.68
2018-11-01T12:13:04.152Z,11.74
2018-11-01T12:15:35.611Z,11.79
2018-11-01T12:18:07.176Z,11.80
2018-11-01T12:20:39.194Z,11.84
2018-11-01T12:23:10.232Z,11.90
2018-11-01T12:25:41.782Z,11.97
2018-11-01T12:28:13.239Z,11.95
2018-11-01T12:30:45.488Z,11.93
2018-11-01T12:33:16.539Z,11.94
2018-11-01T12:35:47.602Z,11.96
2018-11-01T12:38:18.606Z,11.96
2018-11-01T12:40:50.477Z,11.90
2018-11-01T12:43:21.508Z,11.89
2018-11-01T12:45:52.903Z,11.94
2018-11-01T12:48:24.026Z,11.89
2018-11-01T12:50:55.507Z,11.88
2018-11-01T12:53:26.522Z,11.85
2018-11-01T12:55:59.320Z,11.76
2018-11-01T12:58:30.411Z,11.67
2018-11-01T13:01:02.796Z,11.59
2018-11-01T13:03:33.879Z,11.61
2018-11-01T13:06:05.355Z,11.65
2018-11-01T13:08:36.808Z,11.58
2018-11-01T13:11:07.834Z,11.57
2018-11-01T13:13:38.880Z,11.52
2018-11-01T13:16:10.798Z,11.50
2018-11-01T13:18:42.399Z,11.46
2018-11-01T13:21:13.686Z,11.49
2018-11-01T13:23:45.191Z,11.46
2018-11-01T13:26:16.241Z,11.58
2018-11-01T13:28:47.309Z,11.52
2018-11-01T13:31:18.754Z,11.43
2018-11-01T13:33:50.153Z,11.41
2018-11-01T13:36:21.224Z,11.39
2018-11-01T13:38:52.257Z,11.37
2018-11-01T13:41:24.228Z,11.32
2018-11-01T13:43:55.577Z,11.26
2018-11-01T13:46:26.800Z,11.23
2018-11-01T13:48:57.747Z,11.21
2018-11-01T13:51:29.031Z,11.29
2018-11-01T13:54:00.083Z,11.23
2018-11-01T13:56:31.596Z,11.18
2018-11-01T13:59:03.101Z,11.13
2018-11-01T14:01:34.199Z,11.03
2018-11-01T14:04:06.137Z,11.04
2018-11-01T14:06:37.361Z,11.01
2018-11-01T14:09:09.887Z,11.01
2018-11-01T14:11:41.293Z,10.96
2018-11-01T14:14:13.799Z,10.95
2018-11-01T14:16:44.454Z,10.95
2018-11-01T14:19:16.908Z,10.94
2018-11-01T14:21:48.884Z,10.89
2018-11-01T14:24:20.076Z,10.92
2018-11-01T14:26:51.483Z,10.88
2018-11-01T14:29:23.014Z,10.82
2018-11-01T14:31:54.030Z,10.73
2018-11-01T14:34:25.510Z,10.67
2018-11-01T14:36:56.579Z,10.63
2018-11-01T14:39:27.585Z,10.67
2018-11-01T14:42:00.226Z,10.63
2018-11-01T14:44:31.452Z,10.57
2018-11-01T14:47:02.416Z,10.58
2018-11-01T14:49:33.949Z,10.72
2018-11-01T14:52:05.380Z,10.82
2018-11-01T14:54:36.933Z,10.69
2018-11-01T14:57:08.000Z,10.58
2018-11-01T14:59:40.371Z,10.54
2018-11-01T15:02:10.299Z,10.61
2018-11-01T15:04:41.385Z,10.64
2018-11-01T15:07:12.846Z,10.57
2018-11-01T15:09:43.894Z,10.53
2018-11-01T15:12:14.921Z,10.55
2018-11-01T15:14:46.502Z,10.47
2018-11-01T15:17:18.091Z,10.43
2018-11-01T15:19:49.140Z,10.33
2018-11-01T15:22:21.060Z,10.31
2018-11-01T15:24:52.543Z,10.28
2018-11-01T15:27:23.584Z,10.30
2018-11-01T15:29:55.615Z,10.25
2018-11-01T15:32:30.420Z,10.20
2018-11-01T15:35:01.464Z,10.16
2018-11-01T15:37:33.568Z,10.12
2018-11-01T15:40:05.681Z,10.18
2018-11-01T15:42:36.866Z,10.17
2018-11-01T15:45:09.467Z,10.07
2018-11-01T15:47:41.406Z,10.01
2018-11-01T15:50:13.838Z,9.98
2018-11-01T15:52:45.934Z,10.03
2018-11-01T15:55:17.580Z,9.95
2018-11-01T15:57:49.071Z,9.91
2018-11-01T16:00:20.969Z,9.90
2018-11-01T16:02:52.604Z,9.87
2018-11-01T16:05:23.629Z,9.85
2018-11-01T16:07:55.965Z,9.82
2018-11-01T16:10:27.559Z,9.82
2018-11-01T16:12:58.611Z,9.88
2018-11-01T16:15:30.180Z,9.87
2018-11-01T16:18:01.831Z,9.83
2018-11-01T16:20:32.994Z,9.83
2018-11-01T16:23:04.069Z,9.91
2018-11-01T16:25:36.097Z,9.81
2018-11-01T16:28:07.722Z,9.81
2018-11-01T16:30:38.956Z,9.88
2018-11-01T16:33:10.862Z,9.90
2018-11-01T16:35:42.423Z,9.74
2018-11-01T16:38:13.944Z,9.64
2018-11-01T16:40:44.955Z,9.69
2018-11-01T16:43:17.000Z,9.59
2018-11-01T16:45:48.431Z,9.65
2018-11-01T16:48:19.951Z,9.60
2018-11-01T16:50:51.045Z,9.54
2018-11-01T16:53:22.373Z,9.63
2018-11-01T16:55:53.858Z,9.63
2018-11-01T16:58:24.937Z,9.55
2018-11-01T17:00:57.671Z,9.44
2018-11-01T17:03:29.114Z,9.41
2018-11-01T17:06:00.349Z,9.41
2018-11-01T17:08:31.762Z,9.38
2018-11-01T17:11:02.898Z,9.38
2018-11-01T17:13:34.357Z,9.38
2018-11-01T17:16:06.184Z,9.39
2018-11-01T17:18:37.213Z,9.40
2018-11-01T17:21:08.282Z,9.41
2018-11-01T17:23:39.533Z,9.49
2018-11-01T17:26:10.992Z,9.50
2018-11-01T17:28:42.463Z,9.48
2018-11-01T17:31:14.081Z,9.41
2018-11-01T17:33:45.207Z,9.42
2018-11-01T17:36:17.698Z,9.47
2018-11-01T17:38:49.360Z,9.44
2018-11-01T17:41:22.578Z,9.47
2018-11-01T17:43:54.044Z,9.43
2018-11-01T17:46:27.442Z,9.27
2018-11-01T17:48:59.902Z,9.42
2018-11-01T17:51:32.095Z,9.42
2018-11-01T17:54:03.168Z,9.44
2018-11-01T17:56:34.261Z,9.42
2018-11-01T17:59:05.463Z,9.38
2018-11-01T18:01:37.682Z,9.34
2018-11-01T18:04:10.349Z,9.33
2018-11-01T18:06:41.433Z,9.29
2018-11-01T18:09:15.296Z,9.32
2018-11-01T18:11:46.476Z,9.35
2018-11-01T18:14:18.184Z,9.36
2018-11-01T18:16:49.257Z,9.39
2018-11-01T18:19:21.706Z,9.39
2018-11-01T18:21:53.212Z,9.37
2018-11-01T18:24:24.289Z,9.34
2018-11-01T18:26:56.262Z,9.34
2018-11-01T18:29:27.665Z,9.34
2018-11-01T18:31:59.604Z,9.33
2018-11-01T18:34:31.261Z,9.35
2018-11-01T18:37:02.301Z,9.40
2018-11-01T18:39:34.129Z,9.32
2018-11-01T18:42:10.898Z,9.30
2018-11-01T18:44:46.757Z,9.30
2018-11-01T18:47:18.210Z,9.32
2018-11-01T18:49:49.267Z,9.29
2018-11-01T18:52:21.626Z,9.32
2018-11-01T18:54:54.020Z,9.35
2018-11-01T18:57:25.106Z,9.35
2018-11-01T18:59:56.106Z,9.25
2018-11-01T19:02:31.249Z,9.17
2018-11-01T19:05:02.750Z,9.11
2018-11-01T19:07:35.664Z,9.07
2018-11-01T19:10:07.821Z,9.06
2018-11-01T19:12:38.900Z,9.05
2018-11-01T19:15:11.472Z,9.05
2018-11-01T19:17:44.492Z,9.05
2018-11-01T19:20:16.310Z,9.07
2018-11-01T19:22:47.488Z,9.09
2018-11-01T19:25:19.720Z,9.15
2018-11-01T19:27:51.828Z,9.15
2018-11-01T19:30:23.092Z,9.10
2018-11-01T19:32:55.116Z,9.06
2018-11-01T19:35:27.030Z,9.00
2018-11-01T19:37:59.926Z,8.98
2018-11-01T19:40:31.619Z,8.97
2018-11-01T19:43:02.666Z,8.93
2018-11-01T19:45:34.134Z,8.93
2018-11-01T19:48:06.415Z,8.92
2018-11-01T19:50:37.399Z,8.93
2018-11-01T19:53:09.267Z,8.97
2018-11-01T19:55:40.336Z,9.01
2018-11-01T19:58:11.860Z,9.05
2018-11-01T20:00:43.032Z,9.03
2018-11-01T20:03:15.680Z,9.05
2018-11-01T20:05:47.616Z,9.05
2018-11-01T20:08:18.716Z,9.06
2018-11-01T20:10:49.769Z,9.06
2018-11-01T20:13:22.736Z,9.06
2018-11-01T20:15:53.796Z,9.01
2018-11-01T20:18:26.368Z,9.04
2018-11-01T20:20:57.711Z,9.04
2018-11-01T20:23:28.843Z,9.07
2018-11-01T20:26:00.811Z,9.12
2018-11-01T20:28:31.906Z,9.10
2018-11-01T20:31:03.222Z,9.10
2018-11-01T20:33:35.323Z,9.12
2018-11-01T20:36:06.364Z,9.12
2018-11-01T20:38:37.497Z,9.09
2018-11-01T20:41:09.688Z,9.12
2018-11-01T20:43:41.290Z,9.14
2018-11-01T20:46:11.828Z,9.18
2018-11-01T20:48:42.348Z,9.16
2018-11-01T20:51:13.352Z,9.15
2018-11-01T20:53:43.853Z,9.16
2018-11-01T20:56:14.941Z,9.16
2018-11-01T20:58:45.985Z,9.16
2018-11-01T21:01:17.916Z,9.10
2018-11-01T21:03:49.589Z,9.05
2018-11-01T21:06:21.815Z,9.10
2018-11-01T21:08:53.835Z,9.16
2018-11-01T21:11:25.575Z,9.11
2018-11-01T21:13:56.965Z,9.05
2018-11-01T21:16:29.125Z,9.07
2018-11-01T21:19:23.112Z,9.08
2018-11-01T21:22:15.479Z,9.13
2018-11-01T21:24:48.048Z,9.15
2018-11-01T21:27:20.377Z,9.12
2018-11-01T21:29:52.723Z,9.13
2018-11-01T21:32:23.253Z,9.08
2018-11-01T21:34:54.487Z,9.08
2018-11-01T21:37:26.315Z,9.05
2018-11-01T21:39:58.748Z,9.06
2018-11-01T21:42:31.263Z,9.06
2018-11-01T21:45:02.332Z,9.02
2018-11-01T21:47:34.213Z,9.01
2018-11-01T21:50:05.897Z,8.99
2018-11-01T21:52:37.352Z,8.98
2018-11-01T21:55:26.572Z,9.00
2018-11-01T21:58:15.960Z,9.01
2018-11-01T22:00:46.819Z,9.06
2018-11-01T22:03:17.887Z,9.07
2018-11-01T22:05:50.559Z,9.08
2018-11-01T22:08:23.769Z,9.11
2018-11-01T22:10:54.976Z,9.15
2018-11-01T22:13:26.146Z,9.14
2018-11-01T22:15:58.122Z,9.18
2018-11-01T22:18:30.867Z,9.19
2018-11-01T22:21:02.994Z,9.20
2018-11-01T22:23:34.191Z,9.22
2018-11-01T22:26:06.117Z,9.23
2018-11-01T22:28:37.529Z,9.23
2018-11-01T22:31:09.683Z,9.28
2018-11-01T22:33:41.159Z,9.30
2018-11-01T22:36:14.082Z,9.27
2018-11-01T22:38:45.770Z,9.26
2018-11-01T22:41:16.730Z,9.24
2018-11-01T22:43:48.280Z,9.26
2018-11-01T22:46:19.806Z,9.24
2018-11-01T22:48:51.292Z,9.27
2018-11-01T22:51:22.425Z,9.29
2018-11-01T22:53:54.011Z,9.30
2018-11-01T22:56:24.987Z,9.29
2018-11-01T22:58:56.498Z,9.30
2018-11-01T23:01:27.562Z,9.26
2018-11-01T23:03:59.597Z,9.27
2018-11-01T23:06:30.991Z,9.22
2018-11-01T23:09:02.096Z,9.16
2018-11-01T23:11:33.116Z,9.10
2018-11-01T23:14:04.361Z,8.99
2018-11-01T23:16:37.411Z,8.92
2018-11-01T23:19:09.411Z,8.82
2018-11-01T23:21:42.349Z,8.71
2018-11-01T23:24:14.194Z,8.66
2018-11-01T23:26:46.043Z,8.66
2018-11-01T23:29:18.928Z,8.57
2018-11-01T23:31:50.349Z,8.56
2018-11-01T23:34:22.380Z,8.55
2018-11-01T23:37:10.779Z,8.51
2018-11-01T23:40:04.131Z,8.45
2018-11-01T23:42:53.488Z,8.43
2018-11-01T23:45:42.209Z,8.41
2018-11-01T23:48:13.565Z,8.39
2018-11-01T23:51:04.075Z,8.26
2018-11-01T23:53:38.930Z,8.25
2018-11-01T23:56:10.315Z,8.21
2018-11-01T23:58:42.202Z,8.17
